sensor_id;sensor_type;location;lat;lon;timestamp;temperature;humidity
10083;DHT22;5080;48.528;8.078;2023-04-01T00:01:11;11.70;99.90
10083;DHT22;5080;48.528;8.078;2023-04-01T00:03:41;11.70;99.90
10083;DHT22;5080;48.528;8.078;2023-04-01T00:06:11;11.60;99.90
10083;DHT22;5080;48.528;8.078;2023-04-01T00:08:39;11.60;99.90
10083;DHT22;5080;48.528;8.078;2023-04-01T00:11:05;11.60;99.90
10083;DHT22;5080;48.528;8.078;2023-04-01T00:13:32;11.70;99.90
10083;DHT22;5080;48.528;8.078;2023-04-01T00:15:59;11.60;99.90
10083;DHT22;5080;48.528;8.078;2023-04-01T00:18:27;11.70;99.90
10083;DHT22;5080;48.528;8.078;2023-04-01T00:20:55;11.70;99.90
10083;DHT22;5080;48.528;8.078;2023-04-01T00:23:22;11.60;99.90
10083;DHT22;5080;48.528;8.078;2023-04-01T00:25:49;11.60;99.90
10083;DHT22;5080;48.528;8.078;2023-04-01T00:28:16;11.60;99.90
10083;DHT22;5080;48.528;8.078;2023-04-01T00:30:43;11.60;99.90
10083;DHT22;5080;48.528;8.078;2023-04-01T00:33:10;11.60;99.90
10083;DHT22;5080;48.528;8.078;2023-04-01T00:35:38;11.60;99.90
10083;DHT22;5080;48.528;8.078;2023-04-01T00:38:06;11.70;99.90
10083;DHT22;5080;48.528;8.078;2023-04-01T00:40:35;11.60;99.90
10083;DHT22;5080;48.528;8.078;2023-04-01T00:43:02;11.70;99.90
10083;DHT22;5080;48.528;8.078;2023-04-01T00:45:32;11.70;99.90
10083;DHT22;5080;48.528;8.078;2023-04-01T00:48:02;11.60;99.90
10083;DHT22;5080;48.528;8.078;2023-04-01T00:50:31;11.60;99.90
10083;DHT22;5080;48.528;8.078;2023-04-01T00:53:00;11.60;99.90
10083;DHT22;5080;48.528;8.078;2023-04-01T00:55:32;11.50;99.90
10083;DHT22;5080;48.528;8.078;2023-04-01T00:58:02;11.50;99.90
10083;DHT22;5080;48.528;8.078;2023-04-01T01:00:30;11.40;99.90
10083;DHT22;5080;48.528;8.078;2023-04-01T01:02:57;11.30;99.90
10083;DHT22;5080;48.528;8.078;2023-04-01T01:05:33;11.40;99.90
10083;DHT22;5080;48.528;8.078;2023-04-01T01:08:12;11.40;99.90
10083;DHT22;5080;48.528;8.078;2023-04-01T01:10:42;11.30;99.90
10083;DHT22;5080;48.528;8.078;2023-04-01T01:13:17;11.30;99.90
10083;DHT22;5080;48.528;8.078;2023-04-01T01:15:49;11.30;99.90
10083;DHT22;5080;48.528;8.078;2023-04-01T01:18:19;11.30;99.90
10083;DHT22;5080;48.528;8.078;2023-04-01T01:21:06;11.30;99.90
10083;DHT22;5080;48.528;8.078;2023-04-01T01:27:00;11.30;99.90
10083;DHT22;5080;48.528;8.078;2023-04-01T01:29:47;11.30;99.90
10083;DHT22;5080;48.528;8.078;2023-04-01T01:35:21;11.30;99.90
10083;DHT22;5080;48.528;8.078;2023-04-01T01:37:51;11.30;99.90
10083;DHT22;5080;48.528;8.078;2023-04-01T01:40:20;11.30;99.90
10083;DHT22;5080;48.528;8.078;2023-04-01T01:42:51;11.30;99.90
10083;DHT22;5080;48.528;8.078;2023-04-01T01:45:21;11.20;99.90
10083;DHT22;5080;48.528;8.078;2023-04-01T01:47:50;11.10;99.90
10083;DHT22;5080;48.528;8.078;2023-04-01T01:50:19;11.10;99.90
10083;DHT22;5080;48.528;8.078;2023-04-01T01:52:46;11.10;99.90
10083;DHT22;5080;48.528;8.078;2023-04-01T01:55:32;11.10;99.90
10083;DHT22;5080;48.528;8.078;2023-04-01T01:58:02;11.10;99.90
10083;DHT22;5080;48.528;8.078;2023-04-01T02:00:31;11.10;99.90
10083;DHT22;5080;48.528;8.078;2023-04-01T02:02:59;11.10;99.90
10083;DHT22;5080;48.528;8.078;2023-04-01T02:05:29;11.10;99.90
10083;DHT22;5080;48.528;8.078;2023-04-01T02:08:01;11.10;99.90
10083;DHT22;5080;48.528;8.078;2023-04-01T02:10:31;11.10;99.90
10083;DHT22;5080;48.528;8.078;2023-04-01T02:13:05;11.20;99.90
10083;DHT22;5080;48.528;8.078;2023-04-01T02:15:37;11.10;99.90
10083;DHT22;5080;48.528;8.078;2023-04-01T02:18:08;11.20;99.90
10083;DHT22;5080;48.528;8.078;2023-04-01T02:20:38;11.30;99.90
10083;DHT22;5080;48.528;8.078;2023-04-01T02:23:06;11.10;99.90
10083;DHT22;5080;48.528;8.078;2023-04-01T02:25:35;11.10;99.90
10083;DHT22;5080;48.528;8.078;2023-04-01T02:28:04;11.10;99.90
10083;DHT22;5080;48.528;8.078;2023-04-01T02:30:34;11.20;99.90
10083;DHT22;5080;48.528;8.078;2023-04-01T02:33:01;11.10;99.90
10083;DHT22;5080;48.528;8.078;2023-04-01T02:35:29;11.10;99.90
10083;DHT22;5080;48.528;8.078;2023-04-01T02:37:58;11.10;99.90
10083;DHT22;5080;48.528;8.078;2023-04-01T02:40:25;11.00;99.90
10083;DHT22;5080;48.528;8.078;2023-04-01T02:42:52;11.00;99.90
10083;DHT22;5080;48.528;8.078;2023-04-01T02:45:19;11.10;99.90
10083;DHT22;5080;48.528;8.078;2023-04-01T02:47:46;10.90;99.90
10083;DHT22;5080;48.528;8.078;2023-04-01T02:50:12;10.90;99.90
10083;DHT22;5080;48.528;8.078;2023-04-01T02:52:39;10.90;99.90
10083;DHT22;5080;48.528;8.078;2023-04-01T02:55:08;10.90;99.90
10083;DHT22;5080;48.528;8.078;2023-04-01T02:57:35;10.90;99.90
10083;DHT22;5080;48.528;8.078;2023-04-01T03:00:03;10.90;99.90
10083;DHT22;5080;48.528;8.078;2023-04-01T03:02:36;10.90;99.90
10083;DHT22;5080;48.528;8.078;2023-04-01T03:05:04;10.90;99.90
10083;DHT22;5080;48.528;8.078;2023-04-01T03:07:31;10.90;99.90
10083;DHT22;5080;48.528;8.078;2023-04-01T03:09:58;11.00;99.90
10083;DHT22;5080;48.528;8.078;2023-04-01T03:12:26;11.00;99.90
10083;DHT22;5080;48.528;8.078;2023-04-01T03:14:53;10.90;99.90
10083;DHT22;5080;48.528;8.078;2023-04-01T03:17:19;11.00;99.90
10083;DHT22;5080;48.528;8.078;2023-04-01T03:19:46;11.00;99.90
10083;DHT22;5080;48.528;8.078;2023-04-01T03:22:13;11.00;99.90
10083;DHT22;5080;48.528;8.078;2023-04-01T03:24:40;11.00;99.90
10083;DHT22;5080;48.528;8.078;2023-04-01T03:27:07;11.00;99.90
10083;DHT22;5080;48.528;8.078;2023-04-01T03:29:35;11.00;99.90
10083;DHT22;5080;48.528;8.078;2023-04-01T03:32:02;11.00;99.90
10083;DHT22;5080;48.528;8.078;2023-04-01T03:34:29;11.00;99.90
10083;DHT22;5080;48.528;8.078;2023-04-01T03:36:56;11.00;99.90
10083;DHT22;5080;48.528;8.078;2023-04-01T03:39:23;11.10;99.90
10083;DHT22;5080;48.528;8.078;2023-04-01T03:41:50;11.00;99.90
10083;DHT22;5080;48.528;8.078;2023-04-01T03:44:17;11.10;99.90
10083;DHT22;5080;48.528;8.078;2023-04-01T03:46:45;11.10;99.90
10083;DHT22;5080;48.528;8.078;2023-04-01T03:49:12;11.10;99.90
10083;DHT22;5080;48.528;8.078;2023-04-01T03:51:39;11.10;99.90
10083;DHT22;5080;48.528;8.078;2023-04-01T03:54:07;11.10;99.90
10083;DHT22;5080;48.528;8.078;2023-04-01T03:56:34;11.10;99.90
10083;DHT22;5080;48.528;8.078;2023-04-01T03:59:02;11.10;99.90
10083;DHT22;5080;48.528;8.078;2023-04-01T04:01:29;11.10;99.90
10083;DHT22;5080;48.528;8.078;2023-04-01T04:03:58;11.10;99.90
10083;DHT22;5080;48.528;8.078;2023-04-01T04:06:28;11.20;99.90
10083;DHT22;5080;48.528;8.078;2023-04-01T04:08:55;11.20;99.90
10083;DHT22;5080;48.528;8.078;2023-04-01T04:11:22;11.30;99.90
10083;DHT22;5080;48.528;8.078;2023-04-01T04:13:49;11.10;99.90
10083;DHT22;5080;48.528;8.078;2023-04-01T04:16:17;11.10;99.90
10083;DHT22;5080;48.528;8.078;2023-04-01T04:18:45;11.10;99.90
10083;DHT22;5080;48.528;8.078;2023-04-01T04:21:14;11.20;99.90
10083;DHT22;5080;48.528;8.078;2023-04-01T04:23:42;11.20;99.90
10083;DHT22;5080;48.528;8.078;2023-04-01T04:26:11;11.20;99.90
10083;DHT22;5080;48.528;8.078;2023-04-01T04:28:39;11.20;99.90
10083;DHT22;5080;48.528;8.078;2023-04-01T04:31:06;11.30;99.90
10083;DHT22;5080;48.528;8.078;2023-04-01T04:33:34;11.20;99.90
10083;DHT22;5080;48.528;8.078;2023-04-01T04:36:02;11.10;99.90
10083;DHT22;5080;48.528;8.078;2023-04-01T04:38:30;11.10;99.90
10083;DHT22;5080;48.528;8.078;2023-04-01T04:40:57;11.10;99.90
10083;DHT22;5080;48.528;8.078;2023-04-01T04:43:24;11.10;99.90
10083;DHT22;5080;48.528;8.078;2023-04-01T04:45:51;11.10;99.90
10083;DHT22;5080;48.528;8.078;2023-04-01T04:48:18;11.00;99.90
10083;DHT22;5080;48.528;8.078;2023-04-01T04:50:46;11.00;99.90
10083;DHT22;5080;48.528;8.078;2023-04-01T04:53:14;11.00;99.90
10083;DHT22;5080;48.528;8.078;2023-04-01T04:55:47;11.00;99.90
10083;DHT22;5080;48.528;8.078;2023-04-01T04:58:14;11.00;99.90
10083;DHT22;5080;48.528;8.078;2023-04-01T05:00:41;10.90;99.90
10083;DHT22;5080;48.528;8.078;2023-04-01T05:03:08;10.90;99.90
10083;DHT22;5080;48.528;8.078;2023-04-01T05:05:35;10.90;99.90
10083;DHT22;5080;48.528;8.078;2023-04-01T05:08:02;10.90;99.90
10083;DHT22;5080;48.528;8.078;2023-04-01T05:10:29;10.90;99.90
10083;DHT22;5080;48.528;8.078;2023-04-01T05:12:58;10.90;99.90
10083;DHT22;5080;48.528;8.078;2023-04-01T05:15:25;10.90;99.90
10083;DHT22;5080;48.528;8.078;2023-04-01T05:17:52;10.90;99.90
10083;DHT22;5080;48.528;8.078;2023-04-01T05:20:19;10.90;99.90
10083;DHT22;5080;48.528;8.078;2023-04-01T05:22:45;10.90;99.90
10083;DHT22;5080;48.528;8.078;2023-04-01T05:25:12;10.90;99.90
10083;DHT22;5080;48.528;8.078;2023-04-01T05:27:39;10.90;99.90
10083;DHT22;5080;48.528;8.078;2023-04-01T05:30:08;10.80;99.90
10083;DHT22;5080;48.528;8.078;2023-04-01T05:32:36;10.90;99.90
10083;DHT22;5080;48.528;8.078;2023-04-01T05:35:04;10.90;99.90
10083;DHT22;5080;48.528;8.078;2023-04-01T05:37:30;10.80;99.90
10083;DHT22;5080;48.528;8.078;2023-04-01T05:39:59;10.80;99.90
10083;DHT22;5080;48.528;8.078;2023-04-01T05:42:26;10.80;99.90
10083;DHT22;5080;48.528;8.078;2023-04-01T05:44:53;10.80;99.90
10083;DHT22;5080;48.528;8.078;2023-04-01T05:47:22;10.80;99.90
10083;DHT22;5080;48.528;8.078;2023-04-01T05:49:49;10.80;99.90
10083;DHT22;5080;48.528;8.078;2023-04-01T05:52:16;10.80;99.90
10083;DHT22;5080;48.528;8.078;2023-04-01T05:54:43;10.80;99.90
10083;DHT22;5080;48.528;8.078;2023-04-01T05:57:10;10.80;99.90
10083;DHT22;5080;48.528;8.078;2023-04-01T05:59:37;10.80;99.90
10083;DHT22;5080;48.528;8.078;2023-04-01T06:02:04;10.80;99.90
10083;DHT22;5080;48.528;8.078;2023-04-01T06:04:38;10.80;99.90
10083;DHT22;5080;48.528;8.078;2023-04-01T06:07:11;10.80;99.90
10083;DHT22;5080;48.528;8.078;2023-04-01T06:09:38;10.80;99.90
10083;DHT22;5080;48.528;8.078;2023-04-01T06:12:32;10.80;99.90
10083;DHT22;5080;48.528;8.078;2023-04-01T06:15:15;10.80;99.90
10083;DHT22;5080;48.528;8.078;2023-04-01T06:17:58;10.90;99.90
10083;DHT22;5080;48.528;8.078;2023-04-01T06:20:35;10.90;99.90
10083;DHT22;5080;48.528;8.078;2023-04-01T06:23:40;10.90;99.90
10083;DHT22;5080;48.528;8.078;2023-04-01T06:26:15;10.90;99.90
10083;DHT22;5080;48.528;8.078;2023-04-01T06:29:14;10.90;99.90
10083;DHT22;5080;48.528;8.078;2023-04-01T06:32:06;10.90;99.90
10083;DHT22;5080;48.528;8.078;2023-04-01T06:34:53;10.90;99.90
10083;DHT22;5080;48.528;8.078;2023-04-01T06:37:48;11.00;99.90
10083;DHT22;5080;48.528;8.078;2023-04-01T06:40:42;11.00;99.90
10083;DHT22;5080;48.528;8.078;2023-04-01T06:43:16;11.00;99.90
10083;DHT22;5080;48.528;8.078;2023-04-01T06:45:51;11.00;99.90
10083;DHT22;5080;48.528;8.078;2023-04-01T06:48:46;11.00;99.90
10083;DHT22;5080;48.528;8.078;2023-04-01T06:51:23;11.00;99.90
10083;DHT22;5080;48.528;8.078;2023-04-01T06:53:56;11.00;99.90
10083;DHT22;5080;48.528;8.078;2023-04-01T06:56:28;11.00;99.90
10083;DHT22;5080;48.528;8.078;2023-04-01T06:58:58;11.00;99.90
10083;DHT22;5080;48.528;8.078;2023-04-01T07:01:29;11.00;99.90
10083;DHT22;5080;48.528;8.078;2023-04-01T07:04:00;11.00;99.90
10083;DHT22;5080;48.528;8.078;2023-04-01T07:06:31;11.00;99.90
10083;DHT22;5080;48.528;8.078;2023-04-01T07:09:02;11.10;99.90
10083;DHT22;5080;48.528;8.078;2023-04-01T07:11:33;11.00;99.90
10083;DHT22;5080;48.528;8.078;2023-04-01T07:14:03;11.00;99.90
10083;DHT22;5080;48.528;8.078;2023-04-01T07:16:33;11.00;99.90
10083;DHT22;5080;48.528;8.078;2023-04-01T07:19:06;11.00;99.90
10083;DHT22;5080;48.528;8.078;2023-04-01T07:21:39;10.90;99.90
10083;DHT22;5080;48.528;8.078;2023-04-01T07:24:11;11.00;99.90
10083;DHT22;5080;48.528;8.078;2023-04-01T07:26:41;11.00;99.90
10083;DHT22;5080;48.528;8.078;2023-04-01T07:29:10;11.00;99.90
10083;DHT22;5080;48.528;8.078;2023-04-01T07:31:49;11.00;99.90
10083;DHT22;5080;48.528;8.078;2023-04-01T07:34:22;11.10;99.90
10083;DHT22;5080;48.528;8.078;2023-04-01T07:36:54;11.10;99.90
10083;DHT22;5080;48.528;8.078;2023-04-01T07:39:34;11.10;99.90
10083;DHT22;5080;48.528;8.078;2023-04-01T07:42:11;11.10;99.90
10083;DHT22;5080;48.528;8.078;2023-04-01T07:44:50;11.20;99.90
10083;DHT22;5080;48.528;8.078;2023-04-01T07:47:31;11.20;99.90
10083;DHT22;5080;48.528;8.078;2023-04-01T07:50:11;11.30;99.90
10083;DHT22;5080;48.528;8.078;2023-04-01T07:52:46;11.30;99.90
10083;DHT22;5080;48.528;8.078;2023-04-01T07:55:19;11.30;99.90
10083;DHT22;5080;48.528;8.078;2023-04-01T07:57:53;11.30;99.90
10083;DHT22;5080;48.528;8.078;2023-04-01T08:00:24;11.30;99.90
10083;DHT22;5080;48.528;8.078;2023-04-01T08:03:16;11.20;99.90
10083;DHT22;5080;48.528;8.078;2023-04-01T08:05:53;11.20;99.90
10083;DHT22;5080;48.528;8.078;2023-04-01T08:08:28;11.20;99.90
10083;DHT22;5080;48.528;8.078;2023-04-01T08:11:07;11.20;99.90
10083;DHT22;5080;48.528;8.078;2023-04-01T08:13:42;11.20;99.90
10083;DHT22;5080;48.528;8.078;2023-04-01T08:16:17;11.20;99.90
10083;DHT22;5080;48.528;8.078;2023-04-01T08:18:54;11.30;99.90
10083;DHT22;5080;48.528;8.078;2023-04-01T08:21:27;11.30;99.90
10083;DHT22;5080;48.528;8.078;2023-04-01T08:23:57;11.20;99.90
10083;DHT22;5080;48.528;8.078;2023-04-01T08:26:34;11.20;99.90
10083;DHT22;5080;48.528;8.078;2023-04-01T08:29:08;11.20;99.90
10083;DHT22;5080;48.528;8.078;2023-04-01T08:31:39;11.20;99.90
10083;DHT22;5080;48.528;8.078;2023-04-01T08:34:12;11.10;99.90
10083;DHT22;5080;48.528;8.078;2023-04-01T08:36:42;11.10;99.90
10083;DHT22;5080;48.528;8.078;2023-04-01T08:39:13;11.10;99.90
10083;DHT22;5080;48.528;8.078;2023-04-01T08:42:06;11.00;99.90
10083;DHT22;5080;48.528;8.078;2023-04-01T08:45:03;11.00;99.90
10083;DHT22;5080;48.528;8.078;2023-04-01T08:47:52;11.00;99.90
10083;DHT22;5080;48.528;8.078;2023-04-01T08:50:36;11.00;99.90
10083;DHT22;5080;48.528;8.078;2023-04-01T08:53:13;11.00;99.90
10083;DHT22;5080;48.528;8.078;2023-04-01T08:55:51;11.10;99.90
10083;DHT22;5080;48.528;8.078;2023-04-01T08:58:59;11.00;99.90
10083;DHT22;5080;48.528;8.078;2023-04-01T09:01:46;11.00;99.90
10083;DHT22;5080;48.528;8.078;2023-04-01T09:04:29;10.90;99.90
10083;DHT22;5080;48.528;8.078;2023-04-01T09:07:06;10.90;99.90
10083;DHT22;5080;48.528;8.078;2023-04-01T09:09:50;10.90;99.90
10083;DHT22;5080;48.528;8.078;2023-04-01T09:12:33;10.90;99.90
10083;DHT22;5080;48.528;8.078;2023-04-01T09:15:27;10.90;99.90
10083;DHT22;5080;48.528;8.078;2023-04-01T09:18:37;10.90;99.90
10083;DHT22;5080;48.528;8.078;2023-04-01T09:21:35;10.90;99.90
10083;DHT22;5080;48.528;8.078;2023-04-01T09:24:21;10.80;99.90
10083;DHT22;5080;48.528;8.078;2023-04-01T09:27:04;10.80;99.90
10083;DHT22;5080;48.528;8.078;2023-04-01T09:30:06;10.90;99.90
10083;DHT22;5080;48.528;8.078;2023-04-01T09:35:46;10.90;99.90
10083;DHT22;5080;48.528;8.078;2023-04-01T09:38:26;10.90;99.90
10083;DHT22;5080;48.528;8.078;2023-04-01T09:40:56;10.90;99.90
10083;DHT22;5080;48.528;8.078;2023-04-01T09:43:30;10.90;99.90
10083;DHT22;5080;48.528;8.078;2023-04-01T09:46:09;10.90;99.90
10083;DHT22;5080;48.528;8.078;2023-04-01T09:49:03;11.00;99.90
10083;DHT22;5080;48.528;8.078;2023-04-01T09:51:38;11.00;99.90
10083;DHT22;5080;48.528;8.078;2023-04-01T09:54:17;11.00;99.90
10083;DHT22;5080;48.528;8.078;2023-04-01T10:00:10;11.10;99.90
10083;DHT22;5080;48.528;8.078;2023-04-01T10:03:03;11.10;99.90
10083;DHT22;5080;48.528;8.078;2023-04-01T10:09:14;11.20;99.90
10083;DHT22;5080;48.528;8.078;2023-04-01T10:15:34;11.20;99.90
10083;DHT22;5080;48.528;8.078;2023-04-01T10:21:25;11.10;99.90
10083;DHT22;5080;48.528;8.078;2023-04-01T10:24:15;11.10;99.90
10083;DHT22;5080;48.528;8.078;2023-04-01T10:27:10;11.20;99.90
10083;DHT22;5080;48.528;8.078;2023-04-01T10:30:05;11.10;99.90
10083;DHT22;5080;48.528;8.078;2023-04-01T10:36:11;11.20;99.90
10083;DHT22;5080;48.528;8.078;2023-04-01T10:39:19;11.20;99.90
10083;DHT22;5080;48.528;8.078;2023-04-01T10:45:16;11.20;99.90
10083;DHT22;5080;48.528;8.078;2023-04-01T10:48:03;11.30;99.90
10083;DHT22;5080;48.528;8.078;2023-04-01T10:51:11;11.20;99.90
10083;DHT22;5080;48.528;8.078;2023-04-01T10:53:49;11.20;99.90
10083;DHT22;5080;48.528;8.078;2023-04-01T10:56:39;11.10;99.90
10083;DHT22;5080;48.528;8.078;2023-04-01T11:06:06;11.10;99.90
10083;DHT22;5080;48.528;8.078;2023-04-01T11:15:26;11.20;99.90
10083;DHT22;5080;48.528;8.078;2023-04-01T11:18:33;11.20;99.90
10083;DHT22;5080;48.528;8.078;2023-04-01T11:24:21;11.20;99.90
10083;DHT22;5080;48.528;8.078;2023-04-01T11:27:09;11.20;99.90
10083;DHT22;5080;48.528;8.078;2023-04-01T11:32:50;11.20;99.90
10083;DHT22;5080;48.528;8.078;2023-04-01T11:35:32;11.20;99.90
10083;DHT22;5080;48.528;8.078;2023-04-01T11:38:10;11.20;99.90
10083;DHT22;5080;48.528;8.078;2023-04-01T11:40:49;11.20;99.90
10083;DHT22;5080;48.528;8.078;2023-04-01T11:43:24;11.20;99.90
10083;DHT22;5080;48.528;8.078;2023-04-01T11:46:00;11.20;99.90
10083;DHT22;5080;48.528;8.078;2023-04-01T11:51:51;11.20;99.90
10083;DHT22;5080;48.528;8.078;2023-04-01T11:57:24;11.30;99.90
10083;DHT22;5080;48.528;8.078;2023-04-01T12:00:05;11.30;99.90
10083;DHT22;5080;48.528;8.078;2023-04-01T12:02:51;11.30;99.90
10083;DHT22;5080;48.528;8.078;2023-04-01T12:05:36;11.30;99.90
10083;DHT22;5080;48.528;8.078;2023-04-01T12:08:19;11.30;99.90
10083;DHT22;5080;48.528;8.078;2023-04-01T12:10:55;11.30;99.90
10083;DHT22;5080;48.528;8.078;2023-04-01T12:13:31;11.30;99.90
10083;DHT22;5080;48.528;8.078;2023-04-01T12:16:12;11.30;99.90
10083;DHT22;5080;48.528;8.078;2023-04-01T12:18:44;11.30;99.90
10083;DHT22;5080;48.528;8.078;2023-04-01T12:21:21;11.30;99.90
10083;DHT22;5080;48.528;8.078;2023-04-01T12:24:10;11.20;99.90
10083;DHT22;5080;48.528;8.078;2023-04-01T12:26:47;11.20;99.90
10083;DHT22;5080;48.528;8.078;2023-04-01T12:29:43;11.30;99.90
10083;DHT22;5080;48.528;8.078;2023-04-01T12:32:20;11.30;99.90
10083;DHT22;5080;48.528;8.078;2023-04-01T12:35:02;11.30;99.90
10083;DHT22;5080;48.528;8.078;2023-04-01T12:37:38;11.30;99.90
10083;DHT22;5080;48.528;8.078;2023-04-01T12:40:20;11.40;99.90
10083;DHT22;5080;48.528;8.078;2023-04-01T12:42:59;11.40;99.90
10083;DHT22;5080;48.528;8.078;2023-04-01T12:45:30;11.40;99.90
10083;DHT22;5080;48.528;8.078;2023-04-01T12:54:23;11.50;99.90
10083;DHT22;5080;48.528;8.078;2023-04-01T12:57:05;11.50;99.90
10083;DHT22;5080;48.528;8.078;2023-04-01T12:59:49;11.50;99.90
10083;DHT22;5080;48.528;8.078;2023-04-01T13:02:26;11.50;99.90
10083;DHT22;5080;48.528;8.078;2023-04-01T13:05:12;11.60;99.90
10083;DHT22;5080;48.528;8.078;2023-04-01T13:08:01;11.50;99.90
10083;DHT22;5080;48.528;8.078;2023-04-01T13:10:38;11.50;99.90
10083;DHT22;5080;48.528;8.078;2023-04-01T13:13:28;11.40;99.90
10083;DHT22;5080;48.528;8.078;2023-04-01T13:16:05;11.40;99.90
10083;DHT22;5080;48.528;8.078;2023-04-01T13:18:43;11.50;99.90
10083;DHT22;5080;48.528;8.078;2023-04-01T13:21:20;11.50;99.90
10083;DHT22;5080;48.528;8.078;2023-04-01T13:23:55;11.60;99.90
10083;DHT22;5080;48.528;8.078;2023-04-01T13:26:34;11.60;99.90
10083;DHT22;5080;48.528;8.078;2023-04-01T13:29:09;11.60;99.90
10083;DHT22;5080;48.528;8.078;2023-04-01T13:31:55;11.60;99.90
10083;DHT22;5080;48.528;8.078;2023-04-01T13:34:35;11.70;99.90
10083;DHT22;5080;48.528;8.078;2023-04-01T13:37:13;11.70;99.90
10083;DHT22;5080;48.528;8.078;2023-04-01T13:39:53;11.70;99.90
10083;DHT22;5080;48.528;8.078;2023-04-01T13:42:28;11.70;99.90
10083;DHT22;5080;48.528;8.078;2023-04-01T13:45:00;11.60;99.90
10083;DHT22;5080;48.528;8.078;2023-04-01T13:50:34;11.60;99.90
10083;DHT22;5080;48.528;8.078;2023-04-01T13:53:22;11.60;99.90
10083;DHT22;5080;48.528;8.078;2023-04-01T13:58:57;11.70;99.90
10083;DHT22;5080;48.528;8.078;2023-04-01T14:01:34;11.70;99.90
10083;DHT22;5080;48.528;8.078;2023-04-01T14:04:29;11.80;99.90
10083;DHT22;5080;48.528;8.078;2023-04-01T14:07:12;11.80;99.90
10083;DHT22;5080;48.528;8.078;2023-04-01T14:09:51;11.80;99.90
10083;DHT22;5080;48.528;8.078;2023-04-01T14:12:30;11.80;99.90
10083;DHT22;5080;48.528;8.078;2023-04-01T14:15:19;11.80;99.90
10083;DHT22;5080;48.528;8.078;2023-04-01T14:18:04;11.90;99.90
10083;DHT22;5080;48.528;8.078;2023-04-01T14:20:38;11.90;99.90
10083;DHT22;5080;48.528;8.078;2023-04-01T14:23:23;11.90;99.90
10083;DHT22;5080;48.528;8.078;2023-04-01T14:26:10;12.00;99.90
10083;DHT22;5080;48.528;8.078;2023-04-01T14:28:43;12.00;99.90
10083;DHT22;5080;48.528;8.078;2023-04-01T14:31:25;11.90;99.90
10083;DHT22;5080;48.528;8.078;2023-04-01T14:34:01;12.00;99.90
10083;DHT22;5080;48.528;8.078;2023-04-01T14:37:06;12.00;99.90
10083;DHT22;5080;48.528;8.078;2023-04-01T14:39:59;12.00;99.90
10083;DHT22;5080;48.528;8.078;2023-04-01T14:46:05;12.00;99.90
10083;DHT22;5080;48.528;8.078;2023-04-01T14:48:36;12.00;99.90
10083;DHT22;5080;48.528;8.078;2023-04-01T14:51:09;12.10;99.90
10083;DHT22;5080;48.528;8.078;2023-04-01T14:53:44;12.10;99.90
10083;DHT22;5080;48.528;8.078;2023-04-01T14:56:36;12.00;99.90
10083;DHT22;5080;48.528;8.078;2023-04-01T14:59:13;12.10;99.90
10083;DHT22;5080;48.528;8.078;2023-04-01T15:01:46;12.20;99.90
10083;DHT22;5080;48.528;8.078;2023-04-01T15:04:43;12.10;99.90
10083;DHT22;5080;48.528;8.078;2023-04-01T15:10:34;12.20;99.90
10083;DHT22;5080;48.528;8.078;2023-04-01T15:13:13;12.10;99.90
10083;DHT22;5080;48.528;8.078;2023-04-01T15:15:57;12.10;99.90
10083;DHT22;5080;48.528;8.078;2023-04-01T15:18:35;12.20;99.90
10083;DHT22;5080;48.528;8.078;2023-04-01T15:21:18;12.20;99.90
10083;DHT22;5080;48.528;8.078;2023-04-01T15:23:59;12.30;99.90
10083;DHT22;5080;48.528;8.078;2023-04-01T15:26:55;12.40;99.90
10083;DHT22;5080;48.528;8.078;2023-04-01T15:29:54;12.40;99.90
10083;DHT22;5080;48.528;8.078;2023-04-01T15:32:37;12.40;99.90
10083;DHT22;5080;48.528;8.078;2023-04-01T15:35:18;12.50;99.90
10083;DHT22;5080;48.528;8.078;2023-04-01T15:37:51;12.50;99.90
10083;DHT22;5080;48.528;8.078;2023-04-01T15:40:24;12.40;99.90
10083;DHT22;5080;48.528;8.078;2023-04-01T15:43:03;12.40;99.90
10083;DHT22;5080;48.528;8.078;2023-04-01T15:45:37;12.30;99.90
10083;DHT22;5080;48.528;8.078;2023-04-01T15:48:18;12.30;99.90
10083;DHT22;5080;48.528;8.078;2023-04-01T15:51:02;12.30;99.90
10083;DHT22;5080;48.528;8.078;2023-04-01T15:53:44;12.30;99.90
10083;DHT22;5080;48.528;8.078;2023-04-01T15:56:26;12.20;99.90
10083;DHT22;5080;48.528;8.078;2023-04-01T15:59:02;12.20;99.90
10083;DHT22;5080;48.528;8.078;2023-04-01T16:01:39;12.20;99.90
10083;DHT22;5080;48.528;8.078;2023-04-01T16:04:32;12.20;99.90
10083;DHT22;5080;48.528;8.078;2023-04-01T16:07:10;12.20;99.90
10083;DHT22;5080;48.528;8.078;2023-04-01T16:09:56;12.20;99.90
10083;DHT22;5080;48.528;8.078;2023-04-01T16:12:36;12.20;99.90
10083;DHT22;5080;48.528;8.078;2023-04-01T16:15:17;12.20;99.90
10083;DHT22;5080;48.528;8.078;2023-04-01T16:18:07;12.20;99.90
10083;DHT22;5080;48.528;8.078;2023-04-01T16:20:44;12.30;99.90
10083;DHT22;5080;48.528;8.078;2023-04-01T16:23:18;12.30;99.90
10083;DHT22;5080;48.528;8.078;2023-04-01T16:25:52;12.30;99.90
10083;DHT22;5080;48.528;8.078;2023-04-01T16:28:24;12.30;99.90
10083;DHT22;5080;48.528;8.078;2023-04-01T16:30:58;12.30;99.90
10083;DHT22;5080;48.528;8.078;2023-04-01T16:33:35;12.30;99.90
10083;DHT22;5080;48.528;8.078;2023-04-01T16:36:09;12.30;99.90
10083;DHT22;5080;48.528;8.078;2023-04-01T16:38:40;12.30;99.90
10083;DHT22;5080;48.528;8.078;2023-04-01T16:41:16;12.30;99.90
10083;DHT22;5080;48.528;8.078;2023-04-01T16:43:46;12.40;99.90
10083;DHT22;5080;48.528;8.078;2023-04-01T16:46:27;12.40;99.90
10083;DHT22;5080;48.528;8.078;2023-04-01T16:49:02;12.40;99.90
10083;DHT22;5080;48.528;8.078;2023-04-01T16:51:37;12.40;99.90
10083;DHT22;5080;48.528;8.078;2023-04-01T16:54:14;12.50;99.90
10083;DHT22;5080;48.528;8.078;2023-04-01T16:56:47;12.50;99.90
10083;DHT22;5080;48.528;8.078;2023-04-01T16:59:19;12.50;99.90
10083;DHT22;5080;48.528;8.078;2023-04-01T17:01:52;12.40;99.90
10083;DHT22;5080;48.528;8.078;2023-04-01T17:04:27;12.40;99.90
10083;DHT22;5080;48.528;8.078;2023-04-01T17:07:05;12.40;99.90
10083;DHT22;5080;48.528;8.078;2023-04-01T17:09:55;12.40;99.90
10083;DHT22;5080;48.528;8.078;2023-04-01T17:12:32;12.30;99.90
10083;DHT22;5080;48.528;8.078;2023-04-01T17:15:07;12.30;99.90
10083;DHT22;5080;48.528;8.078;2023-04-01T17:17:44;12.40;99.90
10083;DHT22;5080;48.528;8.078;2023-04-01T17:20:30;12.30;99.90
10083;DHT22;5080;48.528;8.078;2023-04-01T17:23:01;12.20;99.90
10083;DHT22;5080;48.528;8.078;2023-04-01T17:25:45;11.80;99.90
10083;DHT22;5080;48.528;8.078;2023-04-01T17:28:25;11.40;99.90
10083;DHT22;5080;48.528;8.078;2023-04-01T17:31:00;11.20;99.90
10083;DHT22;5080;48.528;8.078;2023-04-01T17:33:46;11.00;99.90
10083;DHT22;5080;48.528;8.078;2023-04-01T17:39:30;10.70;99.90
10083;DHT22;5080;48.528;8.078;2023-04-01T17:42:06;10.70;99.90
10083;DHT22;5080;48.528;8.078;2023-04-01T17:44:45;10.60;99.90
10083;DHT22;5080;48.528;8.078;2023-04-01T17:50:20;10.80;99.90
10083;DHT22;5080;48.528;8.078;2023-04-01T17:52:55;10.90;99.90
10083;DHT22;5080;48.528;8.078;2023-04-01T17:55:43;11.00;99.90
10083;DHT22;5080;48.528;8.078;2023-04-01T17:58:20;11.00;99.90
10083;DHT22;5080;48.528;8.078;2023-04-01T18:01:00;11.00;99.90